createdAt,value
2022-10-06T00:00:26.207Z,1.80
2022-10-06T00:02:52.602Z,1.02
2022-10-06T00:05:19.053Z,1.70
2022-10-06T00:07:45.475Z,0.60
2022-10-06T00:10:11.870Z,2.13
2022-10-06T00:12:43.070Z,1.55
2022-10-06T00:15:11.262Z,2.70
2022-10-06T00:17:38.211Z,2.03
2022-10-06T00:20:05.432Z,2.03
2022-10-06T00:22:35.963Z,0.52
2022-10-06T00:25:02.741Z,0.65
2022-10-06T00:27:37.373Z,0.70
2022-10-06T00:30:04.718Z,0.95
2022-10-06T00:32:31.166Z,1.42
2022-10-06T00:34:59.032Z,1.83
2022-10-06T00:37:26.531Z,1.67
2022-10-06T00:39:52.939Z,2.38
2022-10-06T00:42:24.835Z,0.52
2022-10-06T00:44:51.462Z,2.10
2022-10-06T00:47:19.636Z,1.08
2022-10-06T00:49:46.542Z,2.15
2022-10-06T00:52:19.826Z,2.20
2022-10-06T00:54:46.287Z,3.72
2022-10-06T00:57:12.793Z,3.10
2022-10-06T00:59:40.083Z,1.13
2022-10-06T01:02:13.849Z,3.08
2022-10-06T01:04:42.463Z,1.73
2022-10-06T01:07:09.759Z,1.52
2022-10-06T01:09:36.687Z,4.15
2022-10-06T01:12:05.432Z,1.80
2022-10-06T01:14:33.048Z,2.50
2022-10-06T01:17:14.174Z,5.63
2022-10-06T01:19:53.818Z,3.33
2022-10-06T01:22:29.248Z,2.67
2022-10-06T01:24:56.281Z,4.30
2022-10-06T01:27:24.259Z,3.80
2022-10-06T01:29:54.549Z,3.90
2022-10-06T01:32:22.401Z,2.63
2022-10-06T01:34:49.069Z,3.60
2022-10-06T01:37:15.547Z,6.20
2022-10-06T01:39:42.331Z,2.47
2022-10-06T01:42:09.461Z,3.50
2022-10-06T01:44:35.946Z,3.47
2022-10-06T01:47:05.208Z,3.88
2022-10-06T01:49:31.861Z,5.10
2022-10-06T01:51:58.434Z,3.15
2022-10-06T01:54:24.848Z,5.72
2022-10-06T01:56:51.257Z,4.82
2022-10-06T01:59:17.707Z,3.47
2022-10-06T02:01:44.177Z,4.25
2022-10-06T02:04:10.763Z,4.25
2022-10-06T02:06:37.295Z,5.40
2022-10-06T02:09:03.840Z,6.28
2022-10-06T02:11:30.420Z,4.95
2022-10-06T02:13:56.910Z,7.72
2022-10-06T02:16:23.649Z,9.23
2022-10-06T02:18:50.150Z,5.10
2022-10-06T02:21:21.756Z,5.28
2022-10-06T02:23:48.690Z,6.10
2022-10-06T02:26:19.480Z,4.85
2022-10-06T02:28:52.335Z,6.20
2022-10-06T02:31:19.384Z,5.00
2022-10-06T02:33:45.891Z,6.47
2022-10-06T02:36:13.946Z,6.70
2022-10-06T02:38:41.561Z,7.45
2022-10-06T02:41:08.702Z,6.45
2022-10-06T02:43:35.570Z,5.88
2022-10-06T02:46:06.890Z,7.78
2022-10-06T02:48:33.335Z,7.75
2022-10-06T02:51:02.176Z,8.85
2022-10-06T02:53:28.800Z,7.68
2022-10-06T02:56:22.754Z,7.50
2022-10-06T02:58:50.632Z,6.63
2022-10-06T03:01:19.775Z,8.77
2022-10-06T03:03:46.882Z,8.65
2022-10-06T03:06:22.230Z,8.05
2022-10-06T03:08:49.682Z,12.43
2022-10-06T03:11:19.227Z,9.52
2022-10-06T03:13:49.858Z,10.00
2022-10-06T03:16:24.692Z,9.70
2022-10-06T03:18:52.546Z,9.50
2022-10-06T03:21:24.431Z,5.90
2022-10-06T03:23:52.348Z,9.68
2022-10-06T03:26:20.913Z,8.25
2022-10-06T03:28:47.460Z,10.98
2022-10-06T03:31:14.957Z,8.30
2022-10-06T03:33:41.678Z,10.65
2022-10-06T03:36:14.741Z,14.13
2022-10-06T03:38:41.304Z,10.43
2022-10-06T03:41:19.298Z,4.88
2022-10-06T03:43:47.125Z,10.57
2022-10-06T03:46:15.684Z,11.55
2022-10-06T03:48:42.384Z,6.28
2022-10-06T03:51:12.397Z,5.18
2022-10-06T03:53:39.055Z,7.88
2022-10-06T03:56:17.034Z,9.50
2022-10-06T03:58:45.543Z,10.07
2022-10-06T04:01:21.102Z,10.15
2022-10-06T04:03:51.816Z,8.43
2022-10-06T04:06:19.236Z,9.43
2022-10-06T04:08:47.271Z,11.07
2022-10-06T04:11:16.020Z,10.80
2022-10-06T04:13:43.690Z,9.38
2022-10-06T04:16:12.195Z,10.00
2022-10-06T04:18:38.802Z,10.93
2022-10-06T04:21:05.552Z,8.90
2022-10-06T04:23:32.098Z,10.75
2022-10-06T04:26:02.983Z,11.38
2022-10-06T04:28:30.176Z,13.38
2022-10-06T04:31:00.888Z,6.10
2022-10-06T04:33:28.183Z,12.48
2022-10-06T04:35:59.577Z,9.95
2022-10-06T04:38:27.108Z,8.27
2022-10-06T04:40:53.735Z,6.65
2022-10-06T04:43:20.174Z,7.20
2022-10-06T04:45:46.671Z,10.32
2022-10-06T04:48:14.131Z,8.10
2022-10-06T04:50:40.567Z,9.45
2022-10-06T04:53:06.990Z,10.35
2022-10-06T04:55:33.826Z,10.18
2022-10-06T04:58:00.210Z,11.70
2022-10-06T05:00:26.810Z,9.43
2022-10-06T05:02:54.246Z,11.32
2022-10-06T05:05:20.618Z,9.40
2022-10-06T05:07:47.111Z,11.07
2022-10-06T05:10:13.596Z,10.15
2022-10-06T05:12:40.069Z,11.48
2022-10-06T05:15:07.299Z,11.57
2022-10-06T05:17:33.688Z,9.88
2022-10-06T05:20:00.093Z,11.25
2022-10-06T05:22:26.474Z,12.10
2022-10-06T05:24:53.848Z,10.68
2022-10-06T05:27:20.722Z,12.13
2022-10-06T05:29:47.638Z,10.60
2022-10-06T05:32:14.049Z,12.60
2022-10-06T05:34:40.471Z,9.80
2022-10-06T05:37:06.864Z,10.48
2022-10-06T05:39:33.260Z,15.85
2022-10-06T05:41:59.623Z,11.77
2022-10-06T05:44:26.040Z,9.25
2022-10-06T05:46:52.496Z,11.77
2022-10-06T05:49:18.929Z,10.77
2022-10-06T05:51:45.372Z,12.52
2022-10-06T05:54:14.173Z,20.38
2022-10-06T05:56:42.154Z,13.38
2022-10-06T05:59:08.575Z,12.77
2022-10-06T06:01:44.061Z,9.35
2022-10-06T06:04:12.264Z,12.02
2022-10-06T06:06:41.074Z,12.45
2022-10-06T06:09:18.859Z,13.93
2022-10-06T06:11:47.574Z,12.90
2022-10-06T06:14:18.763Z,12.52
2022-10-06T06:16:46.319Z,13.27
2022-10-06T06:19:13.547Z,18.98
2022-10-06T06:21:40.370Z,9.55
2022-10-06T06:24:07.239Z,14.15
2022-10-06T06:26:36.698Z,13.88
2022-10-06T06:29:04.005Z,13.05
2022-10-06T06:31:43.680Z,12.10
2022-10-06T06:34:11.967Z,12.82
2022-10-06T06:36:40.972Z,12.40
2022-10-06T06:39:09.570Z,9.63
2022-10-06T06:41:41.248Z,12.63
2022-10-06T06:44:11.072Z,11.40
2022-10-06T06:46:38.515Z,11.75
2022-10-06T06:49:05.808Z,11.23
2022-10-06T06:51:34.589Z,17.30
2022-10-06T06:54:02.558Z,14.02
2022-10-06T06:56:34.947Z,12.75
2022-10-06T06:59:03.875Z,10.55
2022-10-06T07:01:30.668Z,13.75
2022-10-06T07:04:00.928Z,11.23
2022-10-06T07:06:29.257Z,17.13
2022-10-06T07:08:57.651Z,12.02
2022-10-06T07:11:31.319Z,13.45
2022-10-06T07:14:01.453Z,14.18
2022-10-06T07:16:47.924Z,10.18
2022-10-06T07:19:33.422Z,11.57
2022-10-06T07:22:19.948Z,14.38
2022-10-06T07:25:05.413Z,9.98
2022-10-06T07:27:42.476Z,10.77
2022-10-06T07:30:28.594Z,13.88
2022-10-06T07:32:55.295Z,10.77
2022-10-06T07:35:22.854Z,9.07
2022-10-06T07:37:53.032Z,14.35
2022-10-06T07:40:19.554Z,12.35
2022-10-06T07:42:48.724Z,17.02
2022-10-06T07:45:35.974Z,13.38
2022-10-06T07:48:02.607Z,9.20
2022-10-06T07:50:29.237Z,11.35
2022-10-06T07:52:55.744Z,13.07
2022-10-06T07:55:22.209Z,9.90
2022-10-06T07:57:50.890Z,12.02
2022-10-06T08:00:20.545Z,11.05
2022-10-06T08:02:47.241Z,13.98
2022-10-06T08:05:13.926Z,17.75
2022-10-06T08:07:40.916Z,14.57
2022-10-06T08:10:07.592Z,16.33
2022-10-06T08:12:34.261Z,10.52
2022-10-06T08:15:06.089Z,12.93
2022-10-06T08:17:35.268Z,11.98
2022-10-06T08:20:01.784Z,11.35
2022-10-06T08:22:30.020Z,13.65
2022-10-06T08:25:07.665Z,14.38
2022-10-06T08:27:35.339Z,16.13
2022-10-06T08:30:03.425Z,13.02
2022-10-06T08:32:30.093Z,10.93
2022-10-06T08:34:57.014Z,11.93
2022-10-06T08:37:24.516Z,14.52
2022-10-06T08:39:51.539Z,14.10
2022-10-06T08:42:31.991Z,11.20
2022-10-06T08:45:00.843Z,15.77
2022-10-06T08:47:29.423Z,19.17
2022-10-06T08:49:57.116Z,11.98
2022-10-06T08:53:00.779Z,11.63
2022-10-06T08:55:48.462Z,14.02
2022-10-06T08:58:14.786Z,12.52
2022-10-06T09:00:41.190Z,10.80
2022-10-06T09:03:16.738Z,10.13
2022-10-06T09:05:43.188Z,10.32
2022-10-06T09:08:47.534Z,15.65
2022-10-06T09:11:41.823Z,10.52
2022-10-06T09:14:39.174Z,9.23
2022-10-06T09:17:10.834Z,14.95
2022-10-06T09:19:46.552Z,8.83
2022-10-06T09:22:21.604Z,9.80
2022-10-06T09:24:51.353Z,10.05
2022-10-06T09:27:23.930Z,10.18
2022-10-06T09:32:22.210Z,9.05
2022-10-06T09:34:51.297Z,9.80
2022-10-06T09:37:17.961Z,9.13
2022-10-06T09:39:48.149Z,8.00
2022-10-06T09:42:19.629Z,9.68
2022-10-06T09:44:52.577Z,8.07
2022-10-06T09:47:23.509Z,10.43
2022-10-06T09:50:10.022Z,12.05
2022-10-06T09:52:36.537Z,9.60
2022-10-06T09:55:12.520Z,18.95
2022-10-06T09:57:40.888Z,10.77
2022-10-06T10:00:31.820Z,10.45
2022-10-06T10:03:00.158Z,9.77
2022-10-06T10:05:29.547Z,9.40
2022-10-06T10:08:03.561Z,10.90
2022-10-06T10:10:30.349Z,10.30
2022-10-06T10:12:58.846Z,11.10
2022-10-06T10:15:32.001Z,8.70
2022-10-06T10:18:03.028Z,8.30
2022-10-06T10:20:37.707Z,10.85
2022-10-06T10:23:27.208Z,5.75
2022-10-06T10:26:01.214Z,12.05
2022-10-06T10:29:00.943Z,10.38
2022-10-06T10:31:33.413Z,15.43
2022-10-06T10:36:56.418Z,6.80
2022-10-06T10:39:31.765Z,9.10
2022-10-06T10:42:02.590Z,11.45
2022-10-06T10:44:35.997Z,9.02
2022-10-06T10:47:28.606Z,7.43
2022-10-06T10:50:16.822Z,5.30
2022-10-06T10:52:44.449Z,8.48
2022-10-06T10:55:33.317Z,10.07
2022-10-06T10:58:06.107Z,9.80
2022-10-06T11:00:36.098Z,6.25
2022-10-06T11:03:02.701Z,15.07
2022-10-06T11:05:42.474Z,8.65
2022-10-06T11:08:24.987Z,6.15
2022-10-06T11:10:56.603Z,5.70
2022-10-06T11:13:35.175Z,7.63
2022-10-06T11:16:20.131Z,10.80
2022-10-06T11:19:22.230Z,9.05
2022-10-06T11:22:00.811Z,8.32
2022-10-06T11:24:36.095Z,8.68
2022-10-06T11:27:30.584Z,6.57
2022-10-06T11:30:03.779Z,9.25
2022-10-06T11:32:42.348Z,7.07
2022-10-06T11:35:21.485Z,7.22
2022-10-06T11:37:57.381Z,6.22
2022-10-06T11:40:51.729Z,4.65
2022-10-06T11:43:29.964Z,5.85
2022-10-06T11:46:02.108Z,5.45
2022-10-06T11:48:30.079Z,8.10
2022-10-06T11:51:21.513Z,5.40
2022-10-06T11:53:48.014Z,5.50
2022-10-06T11:56:17.443Z,8.27
2022-10-06T11:58:56.029Z,9.82
2022-10-06T12:01:31.559Z,11.73
2022-10-06T12:04:10.228Z,8.00
2022-10-06T12:06:42.919Z,5.03
2022-10-06T12:09:38.906Z,9.02
2022-10-06T12:12:08.233Z,11.75
2022-10-06T12:18:00.632Z,10.60
2022-10-06T12:21:06.417Z,6.10
2022-10-06T12:23:38.490Z,9.50
2022-10-06T12:26:19.858Z,7.47
2022-10-06T12:29:08.169Z,7.65
2022-10-06T12:31:46.192Z,6.72
2022-10-06T12:34:46.342Z,8.95
2022-10-06T12:37:28.061Z,8.63
2022-10-06T12:40:32.503Z,8.47
2022-10-06T12:43:23.052Z,10.25
2022-10-06T12:45:55.574Z,9.02
2022-10-06T12:48:21.935Z,8.00
2022-10-06T12:50:49.554Z,6.78
2022-10-06T12:53:23.916Z,10.90
2022-10-06T12:56:00.517Z,5.10
2022-10-06T12:58:30.969Z,8.82
2022-10-06T13:01:06.875Z,8.20
2022-10-06T13:03:34.485Z,6.25
2022-10-06T13:06:05.838Z,6.55
2022-10-06T13:08:34.258Z,5.20
2022-10-06T13:11:22.426Z,8.32
2022-10-06T13:13:51.516Z,9.35
2022-10-06T13:16:29.554Z,11.65
2022-10-06T13:18:58.486Z,9.73
2022-10-06T13:21:25.156Z,10.65
2022-10-06T13:23:52.256Z,7.25
2022-10-06T13:26:23.898Z,7.60
2022-10-06T13:28:58.287Z,7.60
2022-10-06T13:31:36.545Z,10.20
2022-10-06T13:34:10.573Z,6.72
2022-10-06T13:36:46.854Z,6.63
2022-10-06T13:39:25.363Z,7.50
2022-10-06T13:41:52.591Z,8.07
2022-10-06T13:44:29.491Z,6.78
2022-10-06T13:46:59.705Z,7.07
2022-10-06T13:49:29.775Z,5.63
2022-10-06T13:51:59.686Z,5.15
2022-10-06T13:54:29.690Z,6.40
2022-10-06T13:56:56.177Z,4.32
2022-10-06T13:59:30.206Z,6.30
2022-10-06T14:01:58.793Z,5.57
2022-10-06T14:04:25.342Z,7.40
2022-10-06T14:07:01.698Z,6.82
2022-10-06T14:09:32.289Z,9.88
2022-10-06T14:12:07.316Z,6.70
2022-10-06T14:14:34.094Z,5.22
2022-10-06T14:17:00.512Z,6.50
2022-10-06T14:19:32.804Z,6.47
2022-10-06T14:21:59.390Z,6.80
2022-10-06T14:24:28.250Z,12.02
2022-10-06T14:27:01.013Z,7.88
2022-10-06T14:29:27.414Z,7.45
2022-10-06T14:31:53.833Z,7.05
2022-10-06T14:34:21.868Z,7.65
2022-10-06T14:36:54.952Z,5.97
2022-10-06T14:39:21.514Z,9.38
2022-10-06T14:41:48.048Z,5.93
2022-10-06T14:44:15.757Z,8.15
2022-10-06T14:46:43.828Z,7.18
2022-10-06T14:49:11.747Z,5.03
2022-10-06T14:51:39.241Z,10.23
2022-10-06T14:54:07.461Z,7.45
2022-10-06T14:56:35.063Z,6.88
2022-10-06T14:59:05.391Z,5.60
2022-10-06T15:01:34.189Z,8.40
2022-10-06T15:04:03.938Z,8.38
2022-10-06T15:06:48.876Z,6.15
2022-10-06T15:09:15.346Z,6.45
2022-10-06T15:11:41.982Z,6.72
2022-10-06T15:14:08.674Z,6.03
2022-10-06T15:16:37.358Z,10.73
2022-10-06T15:19:05.487Z,11.80
2022-10-06T15:21:33.069Z,7.22
2022-10-06T15:24:01.602Z,6.68
2022-10-06T15:26:47.277Z,4.22
2022-10-06T15:29:13.940Z,6.93
2022-10-06T15:31:42.844Z,9.02
2022-10-06T15:34:12.099Z,12.27
2022-10-06T15:36:42.677Z,5.15
2022-10-06T15:39:12.827Z,7.78
2022-10-06T15:41:41.099Z,5.63
2022-10-06T15:44:08.472Z,9.07
2022-10-06T15:46:36.193Z,7.07
2022-10-06T15:49:05.345Z,7.80
2022-10-06T15:51:42.646Z,7.03
2022-10-06T15:54:10.808Z,6.93
2022-10-06T15:56:38.097Z,6.13
2022-10-06T15:59:08.068Z,6.97
2022-10-06T16:01:41.960Z,8.88
2022-10-06T16:04:40.170Z,8.20
2022-10-06T16:07:11.818Z,6.53
2022-10-06T16:09:46.185Z,9.50
2022-10-06T16:12:16.219Z,9.65
2022-10-06T16:14:43.231Z,7.25
2022-10-06T16:17:09.943Z,7.07
2022-10-06T16:19:40.175Z,8.20
2022-10-06T16:22:08.128Z,7.40
2022-10-06T16:24:34.732Z,7.20
2022-10-06T16:27:01.172Z,7.13
2022-10-06T16:29:28.192Z,9.98
2022-10-06T16:31:54.847Z,6.82
2022-10-06T16:34:21.678Z,6.13
2022-10-06T16:36:48.061Z,9.43
2022-10-06T16:39:16.636Z,10.38
2022-10-06T16:41:43.534Z,8.65
2022-10-06T16:44:10.289Z,6.63
2022-10-06T16:46:36.888Z,7.40
2022-10-06T16:49:04.385Z,6.97
2022-10-06T16:51:35.857Z,7.50
2022-10-06T16:54:04.562Z,8.80
2022-10-06T16:56:35.906Z,7.90
2022-10-06T16:59:05.462Z,8.27
2022-10-06T17:01:34.644Z,11.90
2022-10-06T17:04:06.663Z,6.28
2022-10-06T17:06:44.280Z,9.80
2022-10-06T17:09:18.563Z,5.20
2022-10-06T17:11:50.674Z,9.18
2022-10-06T17:14:18.068Z,7.15
2022-10-06T17:16:45.646Z,8.63
2022-10-06T17:19:13.347Z,5.32
2022-10-06T17:21:46.114Z,8.73
2022-10-06T17:24:14.290Z,7.50
2022-10-06T17:26:42.736Z,9.25
2022-10-06T17:29:18.703Z,10.88
2022-10-06T17:31:45.617Z,8.88
2022-10-06T17:34:20.881Z,9.30
2022-10-06T17:36:50.697Z,7.88
2022-10-06T17:39:21.739Z,9.57
2022-10-06T17:41:50.133Z,9.40
2022-10-06T17:44:22.296Z,7.75
2022-10-06T17:46:50.904Z,10.00
2022-10-06T17:49:21.945Z,10.52
2022-10-06T17:51:49.500Z,9.43
2022-10-06T17:54:19.717Z,7.43
2022-10-06T17:56:48.136Z,8.70
2022-10-06T17:59:22.853Z,5.68
2022-10-06T18:01:51.087Z,10.05
2022-10-06T18:04:18.494Z,7.85
2022-10-06T18:06:46.089Z,6.88
2022-10-06T18:09:13.070Z,7.38
2022-10-06T18:11:41.903Z,13.32
2022-10-06T18:14:13.687Z,10.85
2022-10-06T18:16:41.487Z,5.50
2022-10-06T18:19:14.412Z,12.00
2022-10-06T18:21:42.100Z,9.90
2022-10-06T18:24:18.593Z,8.18
2022-10-06T18:26:48.141Z,8.32
2022-10-06T18:29:16.546Z,7.90
2022-10-06T18:31:44.023Z,11.13
2022-10-06T18:37:00.159Z,8.68
2022-10-06T18:39:30.990Z,8.63
2022-10-06T18:41:59.094Z,9.43
2022-10-06T18:44:44.395Z,9.18
2022-10-06T18:47:29.526Z,11.63
2022-10-06T18:49:55.928Z,10.35
2022-10-06T18:52:22.616Z,12.13
2022-10-06T18:54:49.181Z,8.32
2022-10-06T18:57:15.653Z,8.88
2022-10-06T18:59:42.417Z,11.32
2022-10-06T19:02:08.913Z,7.90
2022-10-06T19:04:35.858Z,11.15
2022-10-06T19:07:02.492Z,9.32
2022-10-06T19:09:28.907Z,10.32
2022-10-06T19:11:57.653Z,9.00
2022-10-06T19:14:25.508Z,9.43
2022-10-06T19:16:56.228Z,8.23
2022-10-06T19:19:23.427Z,9.60
2022-10-06T19:21:51.754Z,10.57
2022-10-06T19:24:20.474Z,5.72
2022-10-06T19:26:50.699Z,10.75
2022-10-06T19:29:23.028Z,13.40
2022-10-06T19:31:55.997Z,12.07
2022-10-06T19:34:23.046Z,14.68
2022-10-06T19:36:52.933Z,8.48
2022-10-06T19:39:25.087Z,7.45
2022-10-06T19:42:10.703Z,9.73
2022-10-06T19:44:42.890Z,10.85
2022-10-06T19:49:38.191Z,8.85
2022-10-06T19:52:08.128Z,12.32
2022-10-06T19:54:35.352Z,10.23
2022-10-06T19:57:05.534Z,8.23
2022-10-06T19:59:32.735Z,8.77
2022-10-06T20:01:59.156Z,8.05
2022-10-06T20:04:25.908Z,11.35
2022-10-06T20:06:52.555Z,9.50
2022-10-06T20:09:21.413Z,12.75
2022-10-06T20:11:49.089Z,8.30
2022-10-06T20:14:20.741Z,10.07
2022-10-06T20:16:49.159Z,11.60
2022-10-06T20:19:15.729Z,8.30
2022-10-06T20:21:42.952Z,8.45
2022-10-06T20:24:15.039Z,11.75
2022-10-06T20:26:42.405Z,9.10
2022-10-06T20:29:11.578Z,14.73
2022-10-06T20:31:40.251Z,9.52
2022-10-06T20:34:09.022Z,9.63
2022-10-06T20:36:36.407Z,10.40
2022-10-06T20:39:22.787Z,11.18
2022-10-06T20:41:49.448Z,8.98
2022-10-06T20:44:15.901Z,10.55
2022-10-06T20:46:42.627Z,8.93
2022-10-06T20:49:13.706Z,8.00
2022-10-06T20:51:41.806Z,10.68
2022-10-06T20:54:08.267Z,11.35
2022-10-06T20:56:35.182Z,12.57
2022-10-06T20:59:07.512Z,13.23
2022-10-06T21:01:39.779Z,6.82
2022-10-06T21:04:07.069Z,9.18
2022-10-06T21:06:33.655Z,8.13
2022-10-06T21:09:01.417Z,9.57
2022-10-06T21:11:28.244Z,9.00
2022-10-06T21:13:55.061Z,7.78
2022-10-06T21:16:33.382Z,10.82
2022-10-06T21:19:01.766Z,13.20
2022-10-06T21:21:28.344Z,11.60
2022-10-06T21:23:54.864Z,10.73
2022-10-06T21:26:23.654Z,10.38
2022-10-06T21:28:53.218Z,9.55
2022-10-06T21:31:24.855Z,9.77
2022-10-06T21:33:52.442Z,6.87
2022-10-06T21:36:26.474Z,9.45
2022-10-06T21:38:57.521Z,10.65
2022-10-06T21:41:29.000Z,11.55
2022-10-06T21:44:13.456Z,9.98
2022-10-06T21:46:51.079Z,9.07
2022-10-06T21:49:19.800Z,7.68
2022-10-06T21:51:48.396Z,15.68
2022-10-06T21:54:15.207Z,10.93
2022-10-06T21:56:42.075Z,13.13
2022-10-06T21:59:08.709Z,10.68
2022-10-06T22:01:37.293Z,10.05
2022-10-06T22:04:04.317Z,9.98
2022-10-06T22:06:32.381Z,11.45
2022-10-06T22:08:59.953Z,8.93
2022-10-06T22:11:31.394Z,18.00
2022-10-06T22:14:00.418Z,7.80
2022-10-06T22:16:29.658Z,10.90
2022-10-06T22:18:56.405Z,10.18
2022-10-06T22:21:28.440Z,13.80
2022-10-06T22:23:55.992Z,12.05
2022-10-06T22:26:23.040Z,13.05
2022-10-06T22:28:50.816Z,10.52
2022-10-06T22:31:23.211Z,17.30
2022-10-06T22:33:55.190Z,9.93
2022-10-06T22:36:21.844Z,11.57
2022-10-06T22:38:48.472Z,12.80
2022-10-06T22:41:15.220Z,12.13
2022-10-06T22:43:42.283Z,11.73
2022-10-06T22:46:10.349Z,12.60
2022-10-06T22:48:37.073Z,11.18
2022-10-06T22:51:04.696Z,8.35
2022-10-06T22:53:31.589Z,12.93
2022-10-06T22:55:59.898Z,10.13
2022-10-06T22:58:27.445Z,10.73
2022-10-06T23:00:54.365Z,11.05
2022-10-06T23:03:21.712Z,8.75
2022-10-06T23:05:59.848Z,9.60
2022-10-06T23:08:30.172Z,11.65
2022-10-06T23:11:15.368Z,10.90
2022-10-06T23:13:43.320Z,11.13
2022-10-06T23:16:11.925Z,10.10
2022-10-06T23:18:39.776Z,9.75
2022-10-06T23:21:21.965Z,9.55
2022-10-06T23:23:52.530Z,9.23
2022-10-06T23:26:19.378Z,12.73
2022-10-06T23:28:47.012Z,11.85
2022-10-06T23:31:13.603Z,13.57
2022-10-06T23:33:40.285Z,7.78
2022-10-06T23:36:09.764Z,7.65
2022-10-06T23:38:37.436Z,10.10
2022-10-06T23:41:05.167Z,10.40
2022-10-06T23:43:32.280Z,9.05
2022-10-06T23:45:58.929Z,11.45
2022-10-06T23:48:25.623Z,11.45
2022-10-06T23:51:18.360Z,7.85
2022-10-06T23:53:44.971Z,7.20
2022-10-06T23:56:11.763Z,9.00
2022-10-06T23:58:38.935Z,8.45
